createdAt,value
2024-03-13T00:02:13.532Z,23.50
2024-03-13T00:04:43.766Z,23.75
2024-03-13T00:07:16.335Z,26.25
2024-03-13T00:09:51.820Z,25.00
2024-03-13T00:12:22.285Z,23.75
2024-03-13T00:14:53.191Z,23.75
2024-03-13T00:17:23.830Z,17.25
2024-03-13T00:19:54.830Z,27.75
2024-03-13T00:22:26.376Z,24.00
2024-03-13T00:24:58.307Z,18.75
2024-03-13T00:27:28.864Z,33.00
2024-03-13T00:30:00.842Z,28.25
2024-03-13T00:32:31.320Z,23.50
2024-03-13T00:35:01.500Z,26.25
2024-03-13T00:37:32.028Z,24.75
2024-03-13T00:40:04.749Z,23.25
2024-03-13T00:42:35.200Z,12.50
2024-03-13T00:45:05.675Z,27.50
2024-03-13T00:47:36.514Z,29.00
2024-03-13T00:50:13.107Z,20.25
2024-03-13T00:52:46.476Z,20.00
2024-03-13T00:55:16.760Z,30.00
2024-03-13T00:57:46.935Z,30.50
2024-03-13T01:00:17.325Z,22.75
2024-03-13T01:02:47.756Z,18.75
2024-03-13T01:05:18.296Z,24.75
2024-03-13T01:07:50.657Z,25.75
2024-03-13T01:10:20.975Z,24.50
2024-03-13T01:12:51.172Z,29.25
2024-03-13T01:15:21.686Z,22.50
2024-03-13T01:17:51.907Z,25.25
2024-03-13T01:20:22.196Z,33.25
2024-03-13T01:22:52.490Z,28.25
2024-03-13T01:25:22.759Z,30.50
2024-03-13T01:27:52.964Z,26.75
2024-03-13T01:30:23.064Z,32.75
2024-03-13T01:32:53.206Z,14.00
2024-03-13T01:35:24.908Z,24.75
2024-03-13T01:37:55.029Z,23.50
2024-03-13T01:40:26.494Z,26.25
2024-03-13T01:42:56.696Z,34.75
2024-03-13T01:45:49.985Z,18.25
2024-03-13T01:48:20.220Z,26.75
2024-03-13T01:50:51.170Z,24.00
2024-03-13T01:53:21.502Z,22.50
2024-03-13T01:55:52.086Z,20.25
2024-03-13T01:58:22.706Z,22.75
2024-03-13T02:00:53.076Z,13.75
2024-03-13T02:03:23.181Z,21.00
2024-03-13T02:05:53.563Z,32.50
2024-03-13T02:08:23.814Z,20.75
2024-03-13T02:10:54.016Z,23.25
2024-03-13T02:13:24.516Z,23.50
2024-03-13T02:15:54.807Z,13.75
2024-03-13T02:18:27.992Z,24.25
2024-03-13T02:20:58.583Z,22.50
2024-03-13T02:23:29.749Z,26.25
2024-03-13T02:26:00.305Z,23.00
2024-03-13T02:28:40.653Z,20.00
2024-03-13T02:31:10.915Z,23.00
2024-03-13T02:33:41.301Z,31.50
2024-03-13T02:36:11.451Z,22.50
2024-03-13T02:38:41.772Z,23.50
2024-03-13T02:41:11.832Z,25.50
2024-03-13T02:43:41.956Z,17.50
2024-03-13T02:46:12.125Z,26.25
2024-03-13T02:48:42.165Z,17.75
2024-03-13T02:51:12.688Z,15.00
2024-03-13T02:53:42.871Z,18.50
2024-03-13T02:56:13.553Z,18.75
2024-03-13T02:58:43.665Z,17.00
2024-03-13T03:01:14.302Z,13.50
2024-03-13T03:03:44.490Z,13.75
2024-03-13T03:06:14.684Z,21.50
2024-03-13T03:08:44.797Z,15.00
2024-03-13T03:11:15.337Z,15.00
2024-03-13T03:13:45.499Z,14.25
2024-03-13T03:16:15.999Z,10.75
2024-03-13T03:18:46.402Z,18.50
2024-03-13T03:21:16.465Z,21.50
2024-03-13T03:23:46.579Z,23.00
2024-03-13T03:26:19.738Z,20.50
2024-03-13T03:28:49.898Z,16.75
2024-03-13T03:31:20.312Z,77.25
2024-03-13T03:33:50.672Z,30.00
2024-03-13T03:36:21.002Z,16.75
2024-03-13T03:38:52.906Z,15.75
2024-03-13T03:41:23.051Z,24.50
2024-03-13T03:43:53.224Z,25.50
2024-03-13T03:46:23.448Z,14.75
2024-03-13T03:48:53.731Z,20.00
2024-03-13T03:51:24.021Z,17.75
2024-03-13T03:53:54.411Z,15.75
2024-03-13T03:56:24.751Z,22.75
2024-03-13T03:59:03.076Z,89.25
2024-03-13T04:01:34.000Z,72.75
2024-03-13T04:04:04.474Z,21.50
2024-03-13T04:06:34.903Z,23.00
2024-03-13T04:09:05.143Z,12.50
2024-03-13T04:11:35.508Z,26.25
2024-03-13T04:14:06.216Z,13.75
2024-03-13T04:16:36.705Z,12.75
2024-03-13T04:19:06.946Z,12.50
2024-03-13T04:21:37.497Z,14.00
2024-03-13T04:24:08.073Z,19.25
2024-03-13T04:26:39.940Z,15.50
2024-03-13T04:29:10.386Z,14.50
2024-03-13T04:31:40.930Z,21.50
2024-03-13T04:34:13.871Z,10.00
2024-03-13T04:36:44.375Z,21.75
2024-03-13T04:39:14.700Z,18.50
2024-03-13T04:41:44.927Z,15.25
2024-03-13T04:44:15.086Z,13.75
2024-03-13T04:46:45.239Z,11.25
2024-03-13T04:49:15.546Z,11.25
2024-03-13T04:51:45.911Z,14.00
2024-03-13T04:54:16.075Z,14.50
2024-03-13T04:56:46.377Z,10.25
2024-03-13T04:59:16.575Z,13.75
2024-03-13T05:01:46.900Z,11.25
2024-03-13T05:04:17.483Z,16.25
2024-03-13T05:06:47.689Z,12.00
2024-03-13T05:09:17.796Z,22.50
2024-03-13T05:11:47.994Z,12.50
2024-03-13T05:14:18.093Z,16.25
2024-03-13T05:16:48.351Z,19.00
2024-03-13T05:19:18.564Z,11.00
2024-03-13T05:21:48.757Z,11.25
2024-03-13T05:24:18.950Z,13.50
2024-03-13T05:26:49.195Z,18.25
2024-03-13T05:29:19.501Z,20.50
2024-03-13T05:31:49.902Z,17.50
2024-03-13T05:34:20.363Z,16.25
2024-03-13T05:36:50.673Z,22.25
2024-03-13T05:39:21.000Z,14.75
2024-03-13T05:41:51.379Z,17.25
2024-03-13T05:44:21.708Z,15.00
2024-03-13T05:46:51.814Z,6.00
2024-03-13T05:49:22.055Z,12.00
2024-03-13T05:51:52.441Z,14.25
2024-03-13T05:54:22.574Z,19.50
2024-03-13T05:56:56.764Z,21.25
2024-03-13T05:59:27.044Z,20.75
2024-03-13T06:01:57.349Z,20.25
2024-03-13T06:04:27.675Z,27.75
2024-03-13T06:06:58.063Z,18.00
2024-03-13T06:09:28.243Z,18.75
2024-03-13T06:11:58.490Z,18.25
2024-03-13T06:14:28.633Z,19.75
2024-03-13T06:16:59.026Z,10.00
2024-03-13T06:19:29.465Z,14.75
2024-03-13T06:21:59.755Z,18.00
2024-03-13T06:24:30.006Z,25.75
2024-03-13T06:27:01.557Z,17.50
2024-03-13T06:29:32.214Z,22.75
2024-03-13T06:32:02.301Z,18.00
2024-03-13T06:34:35.891Z,25.00
2024-03-13T06:37:04.806Z,28.00
2024-03-13T06:39:35.263Z,30.00
2024-03-13T06:42:05.825Z,19.75
2024-03-13T06:44:36.107Z,26.00
2024-03-13T06:47:07.968Z,27.75
2024-03-13T06:49:41.515Z,25.75
2024-03-13T06:52:17.237Z,25.25
2024-03-13T06:54:50.445Z,24.00
2024-03-13T06:57:22.990Z,23.25
2024-03-13T06:59:55.021Z,19.00
2024-03-13T07:02:25.096Z,24.00
2024-03-13T07:04:55.433Z,19.50
2024-03-13T07:07:25.728Z,25.50
2024-03-13T07:09:56.250Z,17.25
2024-03-13T07:12:26.610Z,20.00
2024-03-13T07:14:56.951Z,11.50
2024-03-13T07:17:29.983Z,20.00
2024-03-13T07:20:00.232Z,25.75
2024-03-13T07:22:30.564Z,18.00
2024-03-13T07:25:00.951Z,25.67
2024-03-13T07:27:31.563Z,21.50
2024-03-13T07:30:11.800Z,22.25
2024-03-13T07:32:42.934Z,31.50
2024-03-13T07:35:16.430Z,21.25
2024-03-13T07:37:48.916Z,27.75
2024-03-13T07:40:19.696Z,18.50
2024-03-13T07:42:51.967Z,22.75
2024-03-13T07:45:21.945Z,21.25
2024-03-13T07:47:52.329Z,22.25
2024-03-13T07:50:22.596Z,20.75
2024-03-13T07:52:52.930Z,17.25
2024-03-13T07:55:23.330Z,17.25
2024-03-13T07:57:55.869Z,18.75
2024-03-13T08:00:26.109Z,15.50
2024-03-13T08:02:57.370Z,21.00
2024-03-13T08:05:27.640Z,19.75
2024-03-13T09:06:52.101Z,26.75
2024-03-13T09:09:29.252Z,22.25
2024-03-13T09:12:02.735Z,18.00
2024-03-13T09:14:40.818Z,16.00
2024-03-13T09:17:14.159Z,19.00
2024-03-13T09:19:44.653Z,19.75
2024-03-13T09:22:16.350Z,23.50
2024-03-13T09:24:46.917Z,26.25
2024-03-13T09:27:26.228Z,18.50
2024-03-13T09:29:58.948Z,14.50
2024-03-13T09:32:29.191Z,20.25
2024-03-13T09:35:01.221Z,18.25
2024-03-13T09:37:33.699Z,19.50
2024-03-13T09:40:04.464Z,17.75
2024-03-13T09:42:36.927Z,18.75
2024-03-13T09:45:10.226Z,14.00
2024-03-13T09:47:41.632Z,17.50
2024-03-13T09:50:49.329Z,19.50
2024-03-13T09:53:15.198Z,18.25
2024-03-13T09:55:45.574Z,21.75
2024-03-13T09:58:16.093Z,23.00
2024-03-13T10:00:46.608Z,20.50
2024-03-13T10:03:25.487Z,19.50
2024-03-13T10:06:05.267Z,21.50
2024-03-13T10:08:43.767Z,22.75
2024-03-13T10:11:16.398Z,22.75
2024-03-13T10:13:47.563Z,18.75
2024-03-13T10:16:19.408Z,25.00
2024-03-13T10:18:52.012Z,21.00
2024-03-13T10:21:31.533Z,19.50
2024-03-13T10:24:04.262Z,18.00
2024-03-13T10:26:37.000Z,22.50
2024-03-13T10:29:09.157Z,18.25
2024-03-13T10:31:39.554Z,17.50
2024-03-13T10:34:11.956Z,13.50
2024-03-13T10:36:42.410Z,13.75
2024-03-13T10:39:12.884Z,20.00
2024-03-13T10:41:43.055Z,18.75
2024-03-13T10:44:16.028Z,14.00
2024-03-13T10:46:46.294Z,13.75
2024-03-13T10:49:16.418Z,18.25
2024-03-13T10:51:59.158Z,20.00
2024-03-13T10:54:26.779Z,19.75
2024-03-13T10:56:57.102Z,18.75
2024-03-13T10:59:30.714Z,11.75
2024-03-13T11:02:01.630Z,25.00
2024-03-13T11:04:33.423Z,17.75
2024-03-13T11:07:04.541Z,37.50
2024-03-13T11:09:36.613Z,45.50
2024-03-13T11:12:17.162Z,35.50
2024-03-13T11:14:53.684Z,38.50
2024-03-13T11:17:28.817Z,38.75
2024-03-13T11:20:08.107Z,26.75
2024-03-13T11:22:40.937Z,27.00
2024-03-13T11:25:14.175Z,28.75
2024-03-13T11:27:47.652Z,31.75
2024-03-13T11:30:21.309Z,37.50
2024-03-13T11:33:00.413Z,30.00
2024-03-13T11:35:31.594Z,34.00
2024-03-13T11:38:03.403Z,32.75
2024-03-13T11:40:37.308Z,32.25
2024-03-13T11:43:11.039Z,35.75
2024-03-13T11:45:43.894Z,27.25
2024-03-13T11:48:16.376Z,25.75
2024-03-13T11:51:06.415Z,34.75
2024-03-13T11:53:38.071Z,30.75
2024-03-13T11:56:12.668Z,23.00
2024-03-13T11:58:44.713Z,26.25
2024-03-13T12:01:17.900Z,20.50
2024-03-13T12:03:47.099Z,20.50
2024-03-13T12:06:26.660Z,23.25
2024-03-13T12:08:58.213Z,28.75
2024-03-13T12:11:31.044Z,23.75
2024-03-13T12:14:01.367Z,23.25
2024-03-13T12:16:32.038Z,11.75
2024-03-13T12:19:04.334Z,21.25
2024-03-13T12:21:42.662Z,19.00
2024-03-13T12:24:13.251Z,15.75
2024-03-13T12:26:43.609Z,24.75
2024-03-13T12:29:13.946Z,16.75
2024-03-13T12:31:44.360Z,9.75
2024-03-13T12:34:14.832Z,12.25
2024-03-13T12:36:46.565Z,14.00
2024-03-13T12:39:17.823Z,15.75
2024-03-13T12:41:48.463Z,16.25
2024-03-13T12:44:35.569Z,19.00
2024-03-13T12:47:25.243Z,14.50
2024-03-13T12:49:58.741Z,19.00
2024-03-13T12:52:30.928Z,18.75
2024-03-13T12:55:08.484Z,14.75
2024-03-13T12:57:39.204Z,17.25
2024-03-13T13:00:14.290Z,14.75
2024-03-13T13:02:53.762Z,16.25
2024-03-13T13:05:27.438Z,17.25
2024-03-13T13:08:02.618Z,13.00
2024-03-13T13:10:33.051Z,14.25
2024-03-13T13:13:05.043Z,17.75
2024-03-13T13:15:39.249Z,13.00
2024-03-13T13:18:13.788Z,24.25
2024-03-13T13:20:47.400Z,22.00
2024-03-13T13:23:17.629Z,57.50
2024-03-13T13:25:47.895Z,38.25
2024-03-13T13:28:18.201Z,29.25
2024-03-13T13:30:48.513Z,26.25
2024-03-13T13:33:21.264Z,26.00
2024-03-13T13:35:53.955Z,27.00
2024-03-13T13:38:34.167Z,34.50
2024-03-13T13:41:04.636Z,56.00
2024-03-13T13:43:37.683Z,47.25
2024-03-13T13:46:15.082Z,22.50
2024-03-13T13:48:45.486Z,23.75
2024-03-13T13:51:16.047Z,22.75
2024-03-13T13:53:46.549Z,30.25
2024-03-13T13:56:17.526Z,31.00
2024-03-13T13:58:48.156Z,31.00
2024-03-13T14:01:18.812Z,24.00
2024-03-13T14:03:52.261Z,29.00
2024-03-13T14:06:22.558Z,18.25
2024-03-13T14:08:53.022Z,22.25
2024-03-13T14:11:27.619Z,19.25
2024-03-13T14:13:59.605Z,20.25
2024-03-13T14:16:31.548Z,13.75
2024-03-13T14:19:02.070Z,24.00
2024-03-13T14:21:32.810Z,23.00
2024-03-13T14:24:07.945Z,21.25
2024-03-13T14:26:42.565Z,19.00
2024-03-13T14:29:22.800Z,17.00
2024-03-13T14:31:55.887Z,19.25
2024-03-13T14:34:26.142Z,20.75
2024-03-13T14:36:56.531Z,21.25
2024-03-13T14:39:26.972Z,20.25
2024-03-13T14:42:01.700Z,19.50
2024-03-13T14:44:33.772Z,11.75
2024-03-13T14:47:08.641Z,17.75
2024-03-13T14:49:40.365Z,16.00
2024-03-13T14:52:11.144Z,11.75
2024-03-13T14:54:41.610Z,21.75
2024-03-13T14:57:12.059Z,6.25
2024-03-13T14:59:42.429Z,13.75
2024-03-13T15:02:12.853Z,13.75
2024-03-13T15:04:43.064Z,17.75
2024-03-13T15:07:21.973Z,15.75
2024-03-13T15:09:52.262Z,16.50
2024-03-13T15:12:29.366Z,12.75
2024-03-13T15:15:00.381Z,6.75
2024-03-13T15:17:30.951Z,12.75
2024-03-13T15:20:05.227Z,9.25
2024-03-13T15:22:35.768Z,12.50
2024-03-13T15:25:06.228Z,12.00
2024-03-13T15:27:42.553Z,10.25
2024-03-13T15:30:15.959Z,10.50
2024-03-13T15:32:49.596Z,10.25
2024-03-13T15:35:23.006Z,11.25
2024-03-13T15:37:53.289Z,12.75
2024-03-13T15:40:26.696Z,16.00
2024-03-13T15:42:58.671Z,10.00
2024-03-13T15:45:30.590Z,11.00
2024-03-13T15:48:02.594Z,5.25
2024-03-13T15:50:36.302Z,17.50
2024-03-13T15:53:07.258Z,11.00
2024-03-13T15:55:44.193Z,11.00
2024-03-13T15:58:14.875Z,15.75
2024-03-13T16:00:46.960Z,13.25
2024-03-13T16:03:17.729Z,11.50
2024-03-13T16:05:50.257Z,12.50
2024-03-13T16:08:51.150Z,12.50
2024-03-13T16:11:31.850Z,14.75
2024-03-13T16:14:07.347Z,11.50
2024-03-13T16:16:43.327Z,16.25
2024-03-13T16:22:45.447Z,16.75
2024-03-13T16:24:50.554Z,15.25
2024-03-13T16:27:30.748Z,19.00
2024-03-13T16:30:08.000Z,18.00
2024-03-13T16:32:40.275Z,16.75
2024-03-13T16:35:15.128Z,24.25
2024-03-13T16:37:48.808Z,42.50
2024-03-13T16:40:24.698Z,69.00
2024-03-13T16:42:55.167Z,69.80
2024-03-13T16:45:25.631Z,64.20
2024-03-13T16:47:57.052Z,83.80
2024-03-13T16:50:28.824Z,102.20
2024-03-13T16:52:59.046Z,211.00
2024-03-13T16:55:33.491Z,125.20
2024-03-13T16:58:05.164Z,168.80
2024-03-13T17:00:36.302Z,162.75
2024-03-13T17:03:07.929Z,191.50
2024-03-13T17:05:42.138Z,147.75
2024-03-13T17:08:12.760Z,113.75
2024-03-13T17:10:50.349Z,97.50
2024-03-13T17:13:20.333Z,104.50
2024-03-13T17:15:53.954Z,114.25
2024-03-13T17:18:24.660Z,162.75
2024-03-13T17:20:59.316Z,88.75
2024-03-13T17:23:31.879Z,98.75
2024-03-13T17:26:02.132Z,95.75
2024-03-13T17:28:38.854Z,104.40
2024-03-13T17:31:09.030Z,66.50
2024-03-13T17:33:40.543Z,53.25
2024-03-13T17:36:28.771Z,54.40
2024-03-13T17:42:40.488Z,24.50
2024-03-13T17:45:01.607Z,28.50
2024-03-13T17:47:32.294Z,28.25
2024-03-13T17:50:02.874Z,20.00
2024-03-13T17:55:12.517Z,26.00
2024-03-13T17:57:43.103Z,78.75
2024-03-13T18:00:15.872Z,87.60
2024-03-13T18:02:48.861Z,40.50
2024-03-13T18:05:23.584Z,26.75
2024-03-13T18:07:53.936Z,36.00
2024-03-13T18:10:25.402Z,41.75
2024-03-13T18:12:58.585Z,40.00
2024-03-13T18:15:32.213Z,31.25
2024-03-13T18:18:02.525Z,38.00
2024-03-13T18:20:33.518Z,29.75
2024-03-13T18:23:03.889Z,27.00
2024-03-13T18:25:49.006Z,26.00
2024-03-13T18:28:23.168Z,26.00
2024-03-13T18:31:04.452Z,33.50
2024-03-13T18:33:35.925Z,43.75
2024-03-13T18:36:28.207Z,37.50
2024-03-13T18:39:01.236Z,22.00
2024-03-13T18:41:40.740Z,17.75
2024-03-13T18:44:14.132Z,29.50
2024-03-13T18:46:44.342Z,45.50
2024-03-13T18:49:14.667Z,108.25
2024-03-13T18:51:46.256Z,134.50
2024-03-13T18:54:23.028Z,27.50
2024-03-13T18:57:00.126Z,41.25
2024-03-13T18:59:47.794Z,63.00
2024-03-13T19:02:20.884Z,59.50
2024-03-13T19:04:59.958Z,149.75
2024-03-13T19:07:29.951Z,91.00
2024-03-13T19:10:03.691Z,137.50
2024-03-13T19:12:46.154Z,52.50
2024-03-13T19:15:20.508Z,54.25
2024-03-13T19:18:05.836Z,41.50
2024-03-13T19:20:38.383Z,48.25
2024-03-13T19:23:08.697Z,40.00
2024-03-13T19:25:44.311Z,32.00
2024-03-13T19:28:28.431Z,28.75
2024-03-13T19:31:04.855Z,34.50
2024-03-13T19:33:36.431Z,29.75
2024-03-13T19:36:08.266Z,38.50
2024-03-13T19:38:38.738Z,29.50
2024-03-13T19:41:19.339Z,23.00
2024-03-13T19:43:48.550Z,24.25
2024-03-13T19:46:19.008Z,31.00
2024-03-13T19:48:49.580Z,34.00
2024-03-13T19:51:27.392Z,33.00
2024-03-13T19:54:01.603Z,36.00
2024-03-13T19:56:37.194Z,38.00
2024-03-13T19:59:07.654Z,32.75
2024-03-13T20:04:34.323Z,30.50
2024-03-13T20:07:06.724Z,29.50
2024-03-13T20:09:36.804Z,26.25
2024-03-13T20:12:14.375Z,34.00
2024-03-13T20:14:50.812Z,26.75
2024-03-13T20:17:26.112Z,23.00
2024-03-13T20:19:56.608Z,25.00
2024-03-13T20:22:29.663Z,30.75
2024-03-13T20:25:03.397Z,26.50
2024-03-13T20:27:36.885Z,30.25
2024-03-13T20:30:12.828Z,32.00
2024-03-13T20:32:49.032Z,33.00
2024-03-13T20:35:20.967Z,32.25
2024-03-13T20:38:07.740Z,26.25
2024-03-13T20:40:39.217Z,31.00
2024-03-13T20:43:10.060Z,33.00
2024-03-13T20:45:43.246Z,30.00
2024-03-13T20:48:15.199Z,16.75
2024-03-13T20:54:04.182Z,25.33
2024-03-13T20:56:34.422Z,27.50
2024-03-13T20:59:04.798Z,25.25
2024-03-13T21:01:35.226Z,21.25
2024-03-13T21:04:07.222Z,20.75
2024-03-13T21:06:38.815Z,15.00
2024-03-13T21:09:09.349Z,22.25
2024-03-13T21:11:39.794Z,15.25
2024-03-13T21:14:10.113Z,15.75
2024-03-13T21:16:45.046Z,18.00
2024-03-13T21:19:16.160Z,14.75
2024-03-13T21:21:47.284Z,13.25
2024-03-13T21:27:01.640Z,17.25
2024-03-13T21:29:34.173Z,23.50
2024-03-13T21:32:06.241Z,30.50
2024-03-13T21:34:40.198Z,22.00
2024-03-13T21:37:13.149Z,27.75
2024-03-13T21:39:46.391Z,40.50
2024-03-13T21:42:20.985Z,20.25
2024-03-13T21:44:52.187Z,22.00
2024-03-13T21:47:31.869Z,25.75
2024-03-13T21:50:07.376Z,22.00
2024-03-13T21:52:37.796Z,25.50
2024-03-13T21:55:15.815Z,24.00
2024-03-13T22:00:40.207Z,11.50
2024-03-13T22:03:19.273Z,24.75
2024-03-13T22:05:51.281Z,27.25
2024-03-13T22:08:27.120Z,22.50
2024-03-13T22:10:59.680Z,16.00
2024-03-13T22:13:34.282Z,18.50
2024-03-13T22:16:10.594Z,23.50
2024-03-13T22:18:45.744Z,23.25
2024-03-13T22:21:22.543Z,25.75
2024-03-13T22:23:54.511Z,24.25
2024-03-13T22:26:27.621Z,19.75
2024-03-13T22:29:00.140Z,16.75
2024-03-13T22:31:31.031Z,30.50
2024-03-13T22:34:06.787Z,19.75
2024-03-13T22:36:38.607Z,19.00
2024-03-13T22:39:08.817Z,17.75
2024-03-13T22:41:42.476Z,14.50
2024-03-13T22:44:12.643Z,18.25
2024-03-13T22:46:42.987Z,25.75
2024-03-13T22:49:13.262Z,18.75
2024-03-13T22:51:43.506Z,18.50
2024-03-13T22:54:24.553Z,17.75
2024-03-13T22:56:47.218Z,16.50
2024-03-13T22:59:23.779Z,18.00
2024-03-13T23:01:55.234Z,17.25
2024-03-13T23:04:25.494Z,13.75
2024-03-13T23:06:55.803Z,18.50
2024-03-13T23:09:26.039Z,14.00
2024-03-13T23:11:56.839Z,14.50
2024-03-13T23:14:27.102Z,15.25
2024-03-13T23:16:57.450Z,19.75
2024-03-13T23:19:28.054Z,25.25
2024-03-13T23:21:58.242Z,25.50
2024-03-13T23:24:28.453Z,18.50
2024-03-13T23:27:10.562Z,26.00
2024-03-13T23:29:40.770Z,13.75
2024-03-13T23:32:19.676Z,20.25
2024-03-13T23:34:54.642Z,21.25
2024-03-13T23:37:27.679Z,26.50
2024-03-13T23:39:59.028Z,30.00
2024-03-13T23:42:43.547Z,24.00
2024-03-13T23:45:16.472Z,27.50
2024-03-13T23:48:08.891Z,31.25
2024-03-13T23:50:49.315Z,31.00
2024-03-13T23:53:19.453Z,34.25
2024-03-13T23:55:53.807Z,15.25
2024-03-13T23:58:28.087Z,27.50
